sensor_id;sensor_type;location;lat;lon;timestamp;P1;durP1;ratioP1;P2;durP2;ratioP2
77822;SDS011;67013;49.730;17.292;2023-06-14T00:00:23;8.20;;;3.70;;
77822;SDS011;67013;49.730;17.292;2023-06-14T00:02:53;7.70;;;3.90;;
77822;SDS011;67013;49.730;17.292;2023-06-14T00:05:22;8.40;;;3.70;;
77822;SDS011;67013;49.730;17.292;2023-06-14T00:07:52;9.80;;;4.30;;
77822;SDS011;67013;49.730;17.292;2023-06-14T00:10:22;7.80;;;3.80;;
77822;SDS011;67013;49.730;17.292;2023-06-14T00:12:51;8.50;;;3.90;;
77822;SDS011;67013;49.730;17.292;2023-06-14T00:15:21;7.40;;;4.70;;
77822;SDS011;67013;49.730;17.292;2023-06-14T00:17:50;9.40;;;3.50;;
77822;SDS011;67013;49.730;17.292;2023-06-14T00:20:21;8.40;;;4.90;;
77822;SDS011;67013;49.730;17.292;2023-06-14T00:22:50;7.30;;;3.50;;
77822;SDS011;67013;49.730;17.292;2023-06-14T00:25:20;7.70;;;3.50;;
77822;SDS011;67013;49.730;17.292;2023-06-14T00:27:51;7.60;;;4.30;;
77822;SDS011;67013;49.730;17.292;2023-06-14T00:30:22;8.00;;;3.90;;
77822;SDS011;67013;49.730;17.292;2023-06-14T00:32:52;9.60;;;4.40;;
77822;SDS011;67013;49.730;17.292;2023-06-14T00:35:21;7.40;;;3.70;;
77822;SDS011;67013;49.730;17.292;2023-06-14T00:37:51;10.00;;;4.00;;
77822;SDS011;67013;49.730;17.292;2023-06-14T00:40:22;9.90;;;3.90;;
77822;SDS011;67013;49.730;17.292;2023-06-14T00:42:51;7.20;;;3.80;;
77822;SDS011;67013;49.730;17.292;2023-06-14T00:45:21;8.00;;;3.40;;
77822;SDS011;67013;49.730;17.292;2023-06-14T00:47:50;8.40;;;4.30;;
77822;SDS011;67013;49.730;17.292;2023-06-14T00:50:21;8.50;;;3.90;;
77822;SDS011;67013;49.730;17.292;2023-06-14T00:52:51;7.00;;;3.30;;
77822;SDS011;67013;49.730;17.292;2023-06-14T00:55:21;7.60;;;4.00;;
77822;SDS011;67013;49.730;17.292;2023-06-14T00:57:51;8.80;;;3.60;;
77822;SDS011;67013;49.730;17.292;2023-06-14T01:00:21;9.10;;;4.70;;
77822;SDS011;67013;49.730;17.292;2023-06-14T01:02:52;7.00;;;3.60;;
77822;SDS011;67013;49.730;17.292;2023-06-14T01:05:21;7.10;;;3.40;;
77822;SDS011;67013;49.730;17.292;2023-06-14T01:08:03;7.80;;;3.60;;
77822;SDS011;67013;49.730;17.292;2023-06-14T01:10:43;8.10;;;4.60;;
77822;SDS011;67013;49.730;17.292;2023-06-14T01:13:21;13.90;;;5.40;;
77822;SDS011;67013;49.730;17.292;2023-06-14T01:15:55;8.80;;;4.60;;
77822;SDS011;67013;49.730;17.292;2023-06-14T01:18:25;9.80;;;3.90;;
77822;SDS011;67013;49.730;17.292;2023-06-14T01:20:57;8.30;;;4.00;;
77822;SDS011;67013;49.730;17.292;2023-06-14T01:23:32;7.10;;;3.40;;
77822;SDS011;67013;49.730;17.292;2023-06-14T01:26:01;8.70;;;4.90;;
77822;SDS011;67013;49.730;17.292;2023-06-14T01:28:32;7.50;;;4.10;;
77822;SDS011;67013;49.730;17.292;2023-06-14T01:31:03;8.70;;;3.70;;
77822;SDS011;67013;49.730;17.292;2023-06-14T01:33:33;7.60;;;4.00;;
77822;SDS011;67013;49.730;17.292;2023-06-14T01:36:05;8.30;;;4.40;;
77822;SDS011;67013;49.730;17.292;2023-06-14T01:38:36;9.80;;;4.60;;
77822;SDS011;67013;49.730;17.292;2023-06-14T01:41:07;7.10;;;4.10;;
77822;SDS011;67013;49.730;17.292;2023-06-14T01:43:37;10.10;;;4.90;;
77822;SDS011;67013;49.730;17.292;2023-06-14T01:46:09;9.40;;;5.20;;
77822;SDS011;67013;49.730;17.292;2023-06-14T01:48:39;11.00;;;5.30;;
77822;SDS011;67013;49.730;17.292;2023-06-14T01:51:09;13.50;;;6.10;;
77822;SDS011;67013;49.730;17.292;2023-06-14T01:53:39;11.30;;;5.80;;
77822;SDS011;67013;49.730;17.292;2023-06-14T01:56:08;14.00;;;6.50;;
77822;SDS011;67013;49.730;17.292;2023-06-14T01:58:38;15.60;;;6.10;;
77822;SDS011;67013;49.730;17.292;2023-06-14T02:01:07;13.20;;;6.20;;
77822;SDS011;67013;49.730;17.292;2023-06-14T02:03:38;15.40;;;6.20;;
77822;SDS011;67013;49.730;17.292;2023-06-14T02:06:07;11.10;;;5.70;;
77822;SDS011;67013;49.730;17.292;2023-06-14T02:08:37;11.40;;;7.20;;
77822;SDS011;67013;49.730;17.292;2023-06-14T02:11:06;10.30;;;5.40;;
77822;SDS011;67013;49.730;17.292;2023-06-14T02:13:36;14.40;;;6.30;;
77822;SDS011;67013;49.730;17.292;2023-06-14T02:16:06;12.00;;;5.80;;
77822;SDS011;67013;49.730;17.292;2023-06-14T02:18:35;14.90;;;7.10;;
77822;SDS011;67013;49.730;17.292;2023-06-14T02:21:05;11.00;;;5.90;;
77822;SDS011;67013;49.730;17.292;2023-06-14T02:23:34;12.20;;;6.50;;
77822;SDS011;67013;49.730;17.292;2023-06-14T02:26:04;12.30;;;6.50;;
77822;SDS011;67013;49.730;17.292;2023-06-14T02:28:33;12.90;;;6.70;;
77822;SDS011;67013;49.730;17.292;2023-06-14T02:31:03;13.30;;;6.80;;
77822;SDS011;67013;49.730;17.292;2023-06-14T02:33:33;12.80;;;6.30;;
77822;SDS011;67013;49.730;17.292;2023-06-14T02:36:03;16.10;;;6.10;;
77822;SDS011;67013;49.730;17.292;2023-06-14T02:38:33;12.80;;;6.20;;
77822;SDS011;67013;49.730;17.292;2023-06-14T02:41:02;14.50;;;7.40;;
77822;SDS011;67013;49.730;17.292;2023-06-14T02:43:32;11.30;;;5.90;;
77822;SDS011;67013;49.730;17.292;2023-06-14T02:46:02;13.50;;;5.90;;
77822;SDS011;67013;49.730;17.292;2023-06-14T02:48:32;11.30;;;6.40;;
77822;SDS011;67013;49.730;17.292;2023-06-14T02:51:02;15.50;;;6.80;;
77822;SDS011;67013;49.730;17.292;2023-06-14T02:53:32;14.40;;;6.70;;
77822;SDS011;67013;49.730;17.292;2023-06-14T02:56:02;12.50;;;6.40;;
77822;SDS011;67013;49.730;17.292;2023-06-14T02:58:32;13.90;;;6.60;;
77822;SDS011;67013;49.730;17.292;2023-06-14T03:01:01;13.00;;;6.10;;
77822;SDS011;67013;49.730;17.292;2023-06-14T03:03:34;12.20;;;6.20;;
77822;SDS011;67013;49.730;17.292;2023-06-14T03:06:03;12.30;;;5.90;;
77822;SDS011;67013;49.730;17.292;2023-06-14T03:08:34;12.70;;;6.00;;
77822;SDS011;67013;49.730;17.292;2023-06-14T03:11:06;14.40;;;7.20;;
77822;SDS011;67013;49.730;17.292;2023-06-14T03:13:36;14.80;;;8.30;;
77822;SDS011;67013;49.730;17.292;2023-06-14T03:16:07;16.10;;;7.60;;
77822;SDS011;67013;49.730;17.292;2023-06-14T03:18:37;13.20;;;6.20;;
77822;SDS011;67013;49.730;17.292;2023-06-14T03:21:07;14.40;;;6.20;;
77822;SDS011;67013;49.730;17.292;2023-06-14T03:23:38;14.40;;;7.40;;
77822;SDS011;67013;49.730;17.292;2023-06-14T03:26:07;14.60;;;7.10;;
77822;SDS011;67013;49.730;17.292;2023-06-14T03:28:41;16.20;;;7.70;;
77822;SDS011;67013;49.730;17.292;2023-06-14T03:31:10;16.70;;;7.80;;
77822;SDS011;67013;49.730;17.292;2023-06-14T03:33:41;14.30;;;7.40;;
77822;SDS011;67013;49.730;17.292;2023-06-14T03:36:11;13.00;;;6.80;;
77822;SDS011;67013;49.730;17.292;2023-06-14T03:38:41;13.50;;;7.40;;
77822;SDS011;67013;49.730;17.292;2023-06-14T03:41:10;18.50;;;8.90;;
77822;SDS011;67013;49.730;17.292;2023-06-14T03:43:40;13.80;;;7.10;;
77822;SDS011;67013;49.730;17.292;2023-06-14T03:46:09;16.10;;;7.90;;
77822;SDS011;67013;49.730;17.292;2023-06-14T03:48:39;16.30;;;8.30;;
77822;SDS011;67013;49.730;17.292;2023-06-14T03:51:08;17.10;;;8.60;;
77822;SDS011;67013;49.730;17.292;2023-06-14T03:53:38;19.20;;;9.30;;
77822;SDS011;67013;49.730;17.292;2023-06-14T03:56:08;18.60;;;7.90;;
77822;SDS011;67013;49.730;17.292;2023-06-14T03:58:37;15.20;;;7.80;;
77822;SDS011;67013;49.730;17.292;2023-06-14T04:01:06;17.60;;;8.90;;
77822;SDS011;67013;49.730;17.292;2023-06-14T04:03:38;14.70;;;8.20;;
77822;SDS011;67013;49.730;17.292;2023-06-14T04:06:08;15.80;;;8.10;;
77822;SDS011;67013;49.730;17.292;2023-06-14T04:08:37;17.20;;;9.20;;
77822;SDS011;67013;49.730;17.292;2023-06-14T04:11:07;17.10;;;8.90;;
77822;SDS011;67013;49.730;17.292;2023-06-14T04:13:37;13.30;;;7.90;;
77822;SDS011;67013;49.730;17.292;2023-06-14T04:16:07;16.00;;;7.70;;
77822;SDS011;67013;49.730;17.292;2023-06-14T04:18:36;12.40;;;6.10;;
77822;SDS011;67013;49.730;17.292;2023-06-14T04:21:06;10.30;;;6.10;;
77822;SDS011;67013;49.730;17.292;2023-06-14T04:23:35;6.10;;;4.30;;
77822;SDS011;67013;49.730;17.292;2023-06-14T04:26:05;4.00;;;2.30;;
77822;SDS011;67013;49.730;17.292;2023-06-14T04:28:37;2.40;;;1.50;;
77822;SDS011;67013;49.730;17.292;2023-06-14T04:31:07;1.10;;;0.60;;
77822;SDS011;67013;49.730;17.292;2023-06-14T04:33:38;0.70;;;0.50;;
77822;SDS011;67013;49.730;17.292;2023-06-14T04:36:12;0.20;;;0.20;;
77822;SDS011;67013;49.730;17.292;2023-06-14T04:38:44;0.20;;;0.20;;
77822;SDS011;67013;49.730;17.292;2023-06-14T04:41:16;0.20;;;0.20;;
77822;SDS011;67013;49.730;17.292;2023-06-14T04:43:45;0.20;;;0.20;;
77822;SDS011;67013;49.730;17.292;2023-06-14T04:46:15;0.20;;;0.20;;
77822;SDS011;67013;49.730;17.292;2023-06-14T04:48:45;0.20;;;0.20;;
77822;SDS011;67013;49.730;17.292;2023-06-14T04:51:17;0.30;;;0.30;;
77822;SDS011;67013;49.730;17.292;2023-06-14T04:53:47;0.30;;;0.30;;
77822;SDS011;67013;49.730;17.292;2023-06-14T04:56:17;0.30;;;0.30;;
77822;SDS011;67013;49.730;17.292;2023-06-14T04:58:46;0.30;;;0.20;;
77822;SDS011;67013;49.730;17.292;2023-06-14T05:01:16;0.20;;;0.20;;
77822;SDS011;67013;49.730;17.292;2023-06-14T05:03:45;0.10;;;0.10;;
77822;SDS011;67013;49.730;17.292;2023-06-14T05:06:15;0.20;;;0.20;;
77822;SDS011;67013;49.730;17.292;2023-06-14T05:08:45;0.10;;;0.10;;
77822;SDS011;67013;49.730;17.292;2023-06-14T05:11:14;0.10;;;0.10;;
77822;SDS011;67013;49.730;17.292;2023-06-14T05:13:44;0.10;;;0.10;;
77822;SDS011;67013;49.730;17.292;2023-06-14T05:16:14;0.10;;;0.10;;
77822;SDS011;67013;49.730;17.292;2023-06-14T05:18:45;0.10;;;0.10;;
77822;SDS011;67013;49.730;17.292;2023-06-14T05:21:15;0.00;;;0.00;;
77822;SDS011;67013;49.730;17.292;2023-06-14T05:23:45;0.00;;;0.00;;
77822;SDS011;67013;49.730;17.292;2023-06-14T05:26:14;0.00;;;0.00;;
77822;SDS011;67013;49.730;17.292;2023-06-14T05:28:44;0.10;;;0.10;;
77822;SDS011;67013;49.730;17.292;2023-06-14T05:31:13;0.00;;;0.00;;
77822;SDS011;67013;49.730;17.292;2023-06-14T05:33:43;0.00;;;0.00;;
77822;SDS011;67013;49.730;17.292;2023-06-14T05:36:12;0.00;;;0.00;;
77822;SDS011;67013;49.730;17.292;2023-06-14T05:38:42;0.00;;;0.00;;
77822;SDS011;67013;49.730;17.292;2023-06-14T05:41:11;0.00;;;0.00;;
77822;SDS011;67013;49.730;17.292;2023-06-14T05:43:42;0.10;;;0.10;;
77822;SDS011;67013;49.730;17.292;2023-06-14T05:46:11;0.00;;;0.00;;
77822;SDS011;67013;49.730;17.292;2023-06-14T05:48:41;0.00;;;0.00;;
77822;SDS011;67013;49.730;17.292;2023-06-14T05:51:11;0.00;;;0.00;;
77822;SDS011;67013;49.730;17.292;2023-06-14T05:53:41;0.00;;;0.00;;
77822;SDS011;67013;49.730;17.292;2023-06-14T05:56:10;0.00;;;0.00;;
77822;SDS011;67013;49.730;17.292;2023-06-14T05:58:40;0.00;;;0.00;;
77822;SDS011;67013;49.730;17.292;2023-06-14T06:01:09;0.00;;;0.00;;
77822;SDS011;67013;49.730;17.292;2023-06-14T06:03:39;0.00;;;0.00;;
77822;SDS011;67013;49.730;17.292;2023-06-14T06:06:12;0.00;;;0.00;;
77822;SDS011;67013;49.730;17.292;2023-06-14T06:08:42;0.00;;;0.00;;
77822;SDS011;67013;49.730;17.292;2023-06-14T06:11:12;0.00;;;0.00;;
77822;SDS011;67013;49.730;17.292;2023-06-14T06:13:41;0.00;;;0.00;;
77822;SDS011;67013;49.730;17.292;2023-06-14T06:16:11;0.00;;;0.00;;
77822;SDS011;67013;49.730;17.292;2023-06-14T06:18:40;0.00;;;0.00;;
77822;SDS011;67013;49.730;17.292;2023-06-14T06:21:10;0.00;;;0.00;;
77822;SDS011;67013;49.730;17.292;2023-06-14T06:23:39;0.00;;;0.00;;
77822;SDS011;67013;49.730;17.292;2023-06-14T06:26:09;0.00;;;0.00;;
77822;SDS011;67013;49.730;17.292;2023-06-14T06:28:38;0.00;;;0.00;;
77822;SDS011;67013;49.730;17.292;2023-06-14T06:31:08;0.00;;;0.00;;
77822;SDS011;67013;49.730;17.292;2023-06-14T06:33:37;0.00;;;0.00;;
77822;SDS011;67013;49.730;17.292;2023-06-14T06:36:07;0.00;;;0.00;;
77822;SDS011;67013;49.730;17.292;2023-06-14T06:38:36;0.00;;;0.00;;
77822;SDS011;67013;49.730;17.292;2023-06-14T06:41:07;0.00;;;0.00;;
77822;SDS011;67013;49.730;17.292;2023-06-14T06:43:36;0.00;;;0.00;;
77822;SDS011;67013;49.730;17.292;2023-06-14T06:46:06;0.00;;;0.00;;
77822;SDS011;67013;49.730;17.292;2023-06-14T06:48:36;0.00;;;0.00;;
77822;SDS011;67013;49.730;17.292;2023-06-14T06:51:05;0.00;;;0.00;;
77822;SDS011;67013;49.730;17.292;2023-06-14T06:53:35;0.00;;;0.00;;
77822;SDS011;67013;49.730;17.292;2023-06-14T06:56:04;0.00;;;0.00;;
77822;SDS011;67013;49.730;17.292;2023-06-14T06:58:34;0.00;;;0.00;;
77822;SDS011;67013;49.730;17.292;2023-06-14T07:01:03;0.00;;;0.00;;
77822;SDS011;67013;49.730;17.292;2023-06-14T07:03:33;0.00;;;0.00;;
77822;SDS011;67013;49.730;17.292;2023-06-14T07:06:03;0.00;;;0.00;;
77822;SDS011;67013;49.730;17.292;2023-06-14T07:08:32;0.00;;;0.00;;
77822;SDS011;67013;49.730;17.292;2023-06-14T07:11:02;0.00;;;0.00;;
77822;SDS011;67013;49.730;17.292;2023-06-14T07:13:32;0.00;;;0.00;;
77822;SDS011;67013;49.730;17.292;2023-06-14T07:16:01;0.00;;;0.00;;
77822;SDS011;67013;49.730;17.292;2023-06-14T07:21:00;0.00;;;0.00;;
77822;SDS011;67013;49.730;17.292;2023-06-14T07:23:30;0.00;;;0.00;;
77822;SDS011;67013;49.730;17.292;2023-06-14T07:25:59;0.00;;;0.00;;
77822;SDS011;67013;49.730;17.292;2023-06-14T07:28:29;0.00;;;0.00;;
77822;SDS011;67013;49.730;17.292;2023-06-14T07:30:58;0.00;;;0.00;;
77822;SDS011;67013;49.730;17.292;2023-06-14T07:33:29;0.00;;;0.00;;
77822;SDS011;67013;49.730;17.292;2023-06-14T07:35:59;0.00;;;0.00;;
77822;SDS011;67013;49.730;17.292;2023-06-14T07:38:28;0.00;;;0.00;;
77822;SDS011;67013;49.730;17.292;2023-06-14T07:40:58;0.10;;;0.10;;
77822;SDS011;67013;49.730;17.292;2023-06-14T07:43:27;0.10;;;0.10;;
77822;SDS011;67013;49.730;17.292;2023-06-14T07:45:57;0.10;;;0.10;;
77822;SDS011;67013;49.730;17.292;2023-06-14T07:48:26;0.00;;;0.00;;
77822;SDS011;67013;49.730;17.292;2023-06-14T07:50:56;0.10;;;0.10;;
77822;SDS011;67013;49.730;17.292;2023-06-14T07:53:26;0.00;;;0.00;;
77822;SDS011;67013;49.730;17.292;2023-06-14T07:55:55;0.10;;;0.10;;
77822;SDS011;67013;49.730;17.292;2023-06-14T07:58:25;0.10;;;0.10;;
77822;SDS011;67013;49.730;17.292;2023-06-14T08:00:54;0.10;;;0.10;;
77822;SDS011;67013;49.730;17.292;2023-06-14T08:03:24;0.10;;;0.10;;
77822;SDS011;67013;49.730;17.292;2023-06-14T08:05:53;0.10;;;0.10;;
77822;SDS011;67013;49.730;17.292;2023-06-14T08:08:23;0.10;;;0.10;;
77822;SDS011;67013;49.730;17.292;2023-06-14T08:10:55;0.10;;;0.10;;
77822;SDS011;67013;49.730;17.292;2023-06-14T08:13:25;0.10;;;0.10;;
77822;SDS011;67013;49.730;17.292;2023-06-14T08:15:54;0.10;;;0.10;;
77822;SDS011;67013;49.730;17.292;2023-06-14T08:18:24;0.10;;;0.10;;
77822;SDS011;67013;49.730;17.292;2023-06-14T08:20:54;0.10;;;0.10;;
77822;SDS011;67013;49.730;17.292;2023-06-14T08:23:24;0.00;;;0.00;;
77822;SDS011;67013;49.730;17.292;2023-06-14T08:25:53;0.10;;;0.10;;
77822;SDS011;67013;49.730;17.292;2023-06-14T08:28:25;0.10;;;0.10;;
77822;SDS011;67013;49.730;17.292;2023-06-14T08:30:54;0.20;;;0.20;;
77822;SDS011;67013;49.730;17.292;2023-06-14T08:33:24;0.20;;;0.20;;
77822;SDS011;67013;49.730;17.292;2023-06-14T08:35:53;0.10;;;0.10;;
77822;SDS011;67013;49.730;17.292;2023-06-14T08:38:23;0.20;;;0.20;;
77822;SDS011;67013;49.730;17.292;2023-06-14T08:40:52;0.10;;;0.10;;
77822;SDS011;67013;49.730;17.292;2023-06-14T08:43:28;0.10;;;0.10;;
77822;SDS011;67013;49.730;17.292;2023-06-14T08:45:58;0.20;;;0.20;;
77822;SDS011;67013;49.730;17.292;2023-06-14T08:48:30;0.10;;;0.10;;
77822;SDS011;67013;49.730;17.292;2023-06-14T08:51:01;0.10;;;0.10;;
77822;SDS011;67013;49.730;17.292;2023-06-14T08:53:32;0.20;;;0.20;;
77822;SDS011;67013;49.730;17.292;2023-06-14T08:56:08;0.10;;;0.10;;
77822;SDS011;67013;49.730;17.292;2023-06-14T08:58:40;0.10;;;0.10;;
77822;SDS011;67013;49.730;17.292;2023-06-14T09:01:11;0.10;;;0.10;;
77822;SDS011;67013;49.730;17.292;2023-06-14T09:03:43;0.20;;;0.20;;
77822;SDS011;67013;49.730;17.292;2023-06-14T09:06:14;0.20;;;0.20;;
77822;SDS011;67013;49.730;17.292;2023-06-14T09:08:45;0.20;;;0.20;;
77822;SDS011;67013;49.730;17.292;2023-06-14T09:11:16;0.20;;;0.20;;
77822;SDS011;67013;49.730;17.292;2023-06-14T09:13:46;0.10;;;0.10;;
77822;SDS011;67013;49.730;17.292;2023-06-14T09:16:16;0.10;;;0.10;;
77822;SDS011;67013;49.730;17.292;2023-06-14T09:18:47;0.10;;;0.10;;
77822;SDS011;67013;49.730;17.292;2023-06-14T09:21:17;0.20;;;0.20;;
77822;SDS011;67013;49.730;17.292;2023-06-14T09:23:47;0.20;;;0.20;;
77822;SDS011;67013;49.730;17.292;2023-06-14T09:26:17;0.10;;;0.10;;
77822;SDS011;67013;49.730;17.292;2023-06-14T09:28:50;0.20;;;0.20;;
77822;SDS011;67013;49.730;17.292;2023-06-14T09:31:20;0.10;;;0.10;;
77822;SDS011;67013;49.730;17.292;2023-06-14T09:33:50;0.20;;;0.20;;
77822;SDS011;67013;49.730;17.292;2023-06-14T09:36:22;0.10;;;0.10;;
77822;SDS011;67013;49.730;17.292;2023-06-14T09:38:53;0.30;;;0.20;;
77822;SDS011;67013;49.730;17.292;2023-06-14T09:41:31;0.10;;;0.10;;
77822;SDS011;67013;49.730;17.292;2023-06-14T09:44:02;0.10;;;0.10;;
77822;SDS011;67013;49.730;17.292;2023-06-14T09:46:33;0.20;;;0.20;;
77822;SDS011;67013;49.730;17.292;2023-06-14T09:49:04;0.20;;;0.20;;
77822;SDS011;67013;49.730;17.292;2023-06-14T09:51:34;0.20;;;0.20;;
77822;SDS011;67013;49.730;17.292;2023-06-14T09:54:12;0.10;;;0.10;;
77822;SDS011;67013;49.730;17.292;2023-06-14T09:56:48;0.10;;;0.10;;
77822;SDS011;67013;49.730;17.292;2023-06-14T09:59:19;0.20;;;0.20;;
77822;SDS011;67013;49.730;17.292;2023-06-14T10:01:58;0.20;;;0.20;;
77822;SDS011;67013;49.730;17.292;2023-06-14T10:04:34;0.10;;;0.10;;
77822;SDS011;67013;49.730;17.292;2023-06-14T10:07:05;0.30;;;0.30;;
77822;SDS011;67013;49.730;17.292;2023-06-14T10:09:35;0.20;;;0.20;;
77822;SDS011;67013;49.730;17.292;2023-06-14T10:14:35;0.20;;;0.20;;
77822;SDS011;67013;49.730;17.292;2023-06-14T10:17:07;0.10;;;0.10;;
77822;SDS011;67013;49.730;17.292;2023-06-14T10:19:46;0.10;;;0.10;;
77822;SDS011;67013;49.730;17.292;2023-06-14T10:22:22;0.20;;;0.20;;
77822;SDS011;67013;49.730;17.292;2023-06-14T10:24:56;0.10;;;0.10;;
77822;SDS011;67013;49.730;17.292;2023-06-14T10:27:27;0.10;;;0.10;;
77822;SDS011;67013;49.730;17.292;2023-06-14T10:30:04;0.20;;;0.20;;
77822;SDS011;67013;49.730;17.292;2023-06-14T10:32:36;0.10;;;0.10;;
77822;SDS011;67013;49.730;17.292;2023-06-14T10:35:33;0.20;;;0.20;;
77822;SDS011;67013;49.730;17.292;2023-06-14T10:38:11;0.20;;;0.20;;
77822;SDS011;67013;49.730;17.292;2023-06-14T10:40:40;0.20;;;0.20;;
77822;SDS011;67013;49.730;17.292;2023-06-14T10:43:24;0.10;;;0.10;;
77822;SDS011;67013;49.730;17.292;2023-06-14T10:46:16;0.10;;;0.10;;
77822;SDS011;67013;49.730;17.292;2023-06-14T10:48:49;0.20;;;0.20;;
77822;SDS011;67013;49.730;17.292;2023-06-14T10:51:29;0.20;;;0.20;;
77822;SDS011;67013;49.730;17.292;2023-06-14T10:54:12;0.30;;;0.10;;
77822;SDS011;67013;49.730;17.292;2023-06-14T10:59:15;0.10;;;0.10;;
77822;SDS011;67013;49.730;17.292;2023-06-14T11:01:49;0.20;;;0.20;;
77822;SDS011;67013;49.730;17.292;2023-06-14T11:04:34;0.20;;;0.20;;
77822;SDS011;67013;49.730;17.292;2023-06-14T11:07:19;0.20;;;0.20;;
77822;SDS011;67013;49.730;17.292;2023-06-14T11:10:09;0.20;;;0.10;;
77822;SDS011;67013;49.730;17.292;2023-06-14T11:12:47;0.20;;;0.20;;
77822;SDS011;67013;49.730;17.292;2023-06-14T11:17:51;0.20;;;0.20;;
77822;SDS011;67013;49.730;17.292;2023-06-14T11:20:20;0.10;;;0.10;;
77822;SDS011;67013;49.730;17.292;2023-06-14T11:22:54;0.20;;;0.20;;
77822;SDS011;67013;49.730;17.292;2023-06-14T11:25:24;0.20;;;0.20;;
77822;SDS011;67013;49.730;17.292;2023-06-14T11:27:54;0.10;;;0.10;;
77822;SDS011;67013;49.730;17.292;2023-06-14T11:30:25;0.30;;;0.30;;
77822;SDS011;67013;49.730;17.292;2023-06-14T11:32:55;0.10;;;0.10;;
77822;SDS011;67013;49.730;17.292;2023-06-14T11:35:25;0.30;;;0.30;;
77822;SDS011;67013;49.730;17.292;2023-06-14T11:37:55;0.20;;;0.20;;
77822;SDS011;67013;49.730;17.292;2023-06-14T11:40:25;0.20;;;0.20;;
77822;SDS011;67013;49.730;17.292;2023-06-14T11:42:59;0.20;;;0.20;;
77822;SDS011;67013;49.730;17.292;2023-06-14T11:45:30;0.20;;;0.20;;
77822;SDS011;67013;49.730;17.292;2023-06-14T11:48:01;0.10;;;0.10;;
77822;SDS011;67013;49.730;17.292;2023-06-14T11:50:31;0.30;;;0.30;;
77822;SDS011;67013;49.730;17.292;2023-06-14T11:53:05;0.20;;;0.20;;
77822;SDS011;67013;49.730;17.292;2023-06-14T11:55:37;0.20;;;0.20;;
77822;SDS011;67013;49.730;17.292;2023-06-14T11:58:07;0.20;;;0.20;;
77822;SDS011;67013;49.730;17.292;2023-06-14T12:00:38;0.20;;;0.20;;
77822;SDS011;67013;49.730;17.292;2023-06-14T12:03:08;0.20;;;0.20;;
77822;SDS011;67013;49.730;17.292;2023-06-14T12:05:39;0.30;;;0.30;;
77822;SDS011;67013;49.730;17.292;2023-06-14T12:08:08;0.10;;;0.10;;
77822;SDS011;67013;49.730;17.292;2023-06-14T12:10:43;0.10;;;0.10;;
77822;SDS011;67013;49.730;17.292;2023-06-14T12:13:16;0.10;;;0.10;;
77822;SDS011;67013;49.730;17.292;2023-06-14T12:15:47;0.20;;;0.20;;
77822;SDS011;67013;49.730;17.292;2023-06-14T12:18:32;0.20;;;0.20;;
77822;SDS011;67013;49.730;17.292;2023-06-14T12:21:04;0.10;;;0.10;;
77822;SDS011;67013;49.730;17.292;2023-06-14T12:23:41;0.30;;;0.30;;
77822;SDS011;67013;49.730;17.292;2023-06-14T12:26:13;0.20;;;0.20;;
77822;SDS011;67013;49.730;17.292;2023-06-14T12:28:43;0.10;;;0.10;;
77822;SDS011;67013;49.730;17.292;2023-06-14T12:31:15;0.20;;;0.20;;
77822;SDS011;67013;49.730;17.292;2023-06-14T12:33:46;0.20;;;0.20;;
77822;SDS011;67013;49.730;17.292;2023-06-14T12:38:44;0.10;;;0.10;;
77822;SDS011;67013;49.730;17.292;2023-06-14T12:41:14;0.10;;;0.10;;
77822;SDS011;67013;49.730;17.292;2023-06-14T12:43:44;0.20;;;0.20;;
77822;SDS011;67013;49.730;17.292;2023-06-14T12:46:14;0.30;;;0.30;;
77822;SDS011;67013;49.730;17.292;2023-06-14T12:48:43;0.30;;;0.30;;
77822;SDS011;67013;49.730;17.292;2023-06-14T12:51:13;0.10;;;0.10;;
77822;SDS011;67013;49.730;17.292;2023-06-14T12:53:42;0.30;;;0.30;;
77822;SDS011;67013;49.730;17.292;2023-06-14T12:56:11;0.20;;;0.20;;
77822;SDS011;67013;49.730;17.292;2023-06-14T12:58:42;0.20;;;0.20;;
77822;SDS011;67013;49.730;17.292;2023-06-14T13:01:11;0.20;;;0.20;;
77822;SDS011;67013;49.730;17.292;2023-06-14T13:03:41;0.20;;;0.20;;
77822;SDS011;67013;49.730;17.292;2023-06-14T13:06:10;0.30;;;0.30;;
77822;SDS011;67013;49.730;17.292;2023-06-14T13:08:39;0.20;;;0.20;;
77822;SDS011;67013;49.730;17.292;2023-06-14T13:11:09;0.30;;;0.30;;
77822;SDS011;67013;49.730;17.292;2023-06-14T13:13:39;0.20;;;0.20;;
77822;SDS011;67013;49.730;17.292;2023-06-14T13:16:08;0.10;;;0.10;;
77822;SDS011;67013;49.730;17.292;2023-06-14T13:18:40;0.20;;;0.20;;
77822;SDS011;67013;49.730;17.292;2023-06-14T13:21:09;0.20;;;0.20;;
77822;SDS011;67013;49.730;17.292;2023-06-14T13:23:38;0.20;;;0.20;;
77822;SDS011;67013;49.730;17.292;2023-06-14T13:26:08;0.30;;;0.30;;
77822;SDS011;67013;49.730;17.292;2023-06-14T13:28:38;0.20;;;0.20;;
77822;SDS011;67013;49.730;17.292;2023-06-14T13:31:08;0.30;;;0.30;;
77822;SDS011;67013;49.730;17.292;2023-06-14T13:33:37;0.20;;;0.20;;
77822;SDS011;67013;49.730;17.292;2023-06-14T13:36:07;0.10;;;0.10;;
77822;SDS011;67013;49.730;17.292;2023-06-14T13:38:36;0.10;;;0.10;;
77822;SDS011;67013;49.730;17.292;2023-06-14T13:41:06;0.10;;;0.10;;
77822;SDS011;67013;49.730;17.292;2023-06-14T13:43:35;0.30;;;0.30;;
77822;SDS011;67013;49.730;17.292;2023-06-14T13:46:05;0.10;;;0.10;;
77822;SDS011;67013;49.730;17.292;2023-06-14T13:48:34;0.10;;;0.10;;
77822;SDS011;67013;49.730;17.292;2023-06-14T13:51:03;0.20;;;0.20;;
77822;SDS011;67013;49.730;17.292;2023-06-14T13:53:33;0.10;;;0.10;;
77822;SDS011;67013;49.730;17.292;2023-06-14T13:56:03;0.30;;;0.30;;
77822;SDS011;67013;49.730;17.292;2023-06-14T13:58:33;0.20;;;0.20;;
77822;SDS011;67013;49.730;17.292;2023-06-14T14:01:02;0.10;;;0.10;;
77822;SDS011;67013;49.730;17.292;2023-06-14T14:03:32;0.20;;;0.20;;
77822;SDS011;67013;49.730;17.292;2023-06-14T14:06:01;0.20;;;0.20;;
77822;SDS011;67013;49.730;17.292;2023-06-14T14:08:32;0.20;;;0.20;;
77822;SDS011;67013;49.730;17.292;2023-06-14T14:11:02;0.10;;;0.10;;
77822;SDS011;67013;49.730;17.292;2023-06-14T14:13:32;0.30;;;0.30;;
77822;SDS011;67013;49.730;17.292;2023-06-14T14:16:03;0.20;;;0.20;;
77822;SDS011;67013;49.730;17.292;2023-06-14T14:18:33;0.20;;;0.20;;
77822;SDS011;67013;49.730;17.292;2023-06-14T14:21:03;0.20;;;0.20;;
77822;SDS011;67013;49.730;17.292;2023-06-14T14:23:32;0.20;;;0.20;;
77822;SDS011;67013;49.730;17.292;2023-06-14T14:26:02;0.20;;;0.20;;
77822;SDS011;67013;49.730;17.292;2023-06-14T14:28:32;0.20;;;0.20;;
77822;SDS011;67013;49.730;17.292;2023-06-14T14:31:01;0.20;;;0.20;;
77822;SDS011;67013;49.730;17.292;2023-06-14T14:33:31;0.30;;;0.30;;
77822;SDS011;67013;49.730;17.292;2023-06-14T14:36:01;0.20;;;0.20;;
77822;SDS011;67013;49.730;17.292;2023-06-14T14:38:33;0.20;;;0.20;;
77822;SDS011;67013;49.730;17.292;2023-06-14T14:41:03;0.20;;;0.20;;
77822;SDS011;67013;49.730;17.292;2023-06-14T14:43:32;0.10;;;0.10;;
77822;SDS011;67013;49.730;17.292;2023-06-14T14:46:02;0.10;;;0.10;;
77822;SDS011;67013;49.730;17.292;2023-06-14T14:48:31;0.30;;;0.30;;
77822;SDS011;67013;49.730;17.292;2023-06-14T14:51:01;0.20;;;0.20;;
77822;SDS011;67013;49.730;17.292;2023-06-14T14:53:30;0.30;;;0.30;;
77822;SDS011;67013;49.730;17.292;2023-06-14T14:56:00;0.20;;;0.20;;
77822;SDS011;67013;49.730;17.292;2023-06-14T14:58:29;0.20;;;0.20;;
77822;SDS011;67013;49.730;17.292;2023-06-14T15:00:59;0.10;;;0.10;;
77822;SDS011;67013;49.730;17.292;2023-06-14T15:03:28;0.20;;;0.20;;
77822;SDS011;67013;49.730;17.292;2023-06-14T15:05:57;0.20;;;0.20;;